sensor_id;sensor_type;location;lat;lon;timestamp;P1;durP1;ratioP1;P2;durP2;ratioP2
33714;SDS011;20043;50.998;4.754;2023-05-07T00:00:02;12.00;;;5.80;;
33714;SDS011;20043;50.998;4.754;2023-05-07T00:02:31;10.18;;;6.00;;
33714;SDS011;20043;50.998;4.754;2023-05-07T00:04:57;7.97;;;5.28;;
33714;SDS011;20043;50.998;4.754;2023-05-07T00:07:23;13.95;;;5.50;;
33714;SDS011;20043;50.998;4.754;2023-05-07T00:09:49;9.98;;;5.72;;
33714;SDS011;20043;50.998;4.754;2023-05-07T00:12:14;9.13;;;5.70;;
33714;SDS011;20043;50.998;4.754;2023-05-07T00:14:40;11.07;;;5.15;;
33714;SDS011;20043;50.998;4.754;2023-05-07T00:17:06;10.93;;;6.10;;
33714;SDS011;20043;50.998;4.754;2023-05-07T00:19:32;12.35;;;6.22;;
33714;SDS011;20043;50.998;4.754;2023-05-07T00:21:57;8.68;;;5.50;;
33714;SDS011;20043;50.998;4.754;2023-05-07T00:24:23;10.93;;;5.43;;
33714;SDS011;20043;50.998;4.754;2023-05-07T00:26:49;10.50;;;4.97;;
33714;SDS011;20043;50.998;4.754;2023-05-07T00:29:15;11.38;;;5.03;;
33714;SDS011;20043;50.998;4.754;2023-05-07T00:31:40;10.85;;;5.20;;
33714;SDS011;20043;50.998;4.754;2023-05-07T00:34:06;11.13;;;5.10;;
33714;SDS011;20043;50.998;4.754;2023-05-07T00:36:32;7.00;;;4.45;;
33714;SDS011;20043;50.998;4.754;2023-05-07T00:38:58;12.13;;;4.82;;
33714;SDS011;20043;50.998;4.754;2023-05-07T00:41:25;10.40;;;5.00;;
33714;SDS011;20043;50.998;4.754;2023-05-07T00:43:51;10.25;;;4.88;;
33714;SDS011;20043;50.998;4.754;2023-05-07T00:46:17;9.57;;;4.18;;
33714;SDS011;20043;50.998;4.754;2023-05-07T00:48:45;13.30;;;5.22;;
33714;SDS011;20043;50.998;4.754;2023-05-07T00:51:10;9.65;;;5.13;;
33714;SDS011;20043;50.998;4.754;2023-05-07T00:53:36;10.25;;;5.03;;
33714;SDS011;20043;50.998;4.754;2023-05-07T00:56:02;9.27;;;5.15;;
33714;SDS011;20043;50.998;4.754;2023-05-07T00:58:29;6.72;;;4.80;;
33714;SDS011;20043;50.998;4.754;2023-05-07T01:00:55;9.55;;;5.47;;
33714;SDS011;20043;50.998;4.754;2023-05-07T01:03:21;8.73;;;5.15;;
33714;SDS011;20043;50.998;4.754;2023-05-07T01:05:47;8.02;;;5.57;;
33714;SDS011;20043;50.998;4.754;2023-05-07T01:08:14;14.15;;;5.85;;
33714;SDS011;20043;50.998;4.754;2023-05-07T01:10:40;10.70;;;6.18;;
33714;SDS011;20043;50.998;4.754;2023-05-07T01:13:08;11.50;;;5.80;;
33714;SDS011;20043;50.998;4.754;2023-05-07T01:15:35;11.02;;;5.25;;
33714;SDS011;20043;50.998;4.754;2023-05-07T01:18:01;8.63;;;5.47;;
33714;SDS011;20043;50.998;4.754;2023-05-07T01:20:27;10.30;;;5.40;;
33714;SDS011;20043;50.998;4.754;2023-05-07T01:22:53;11.02;;;5.00;;
33714;SDS011;20043;50.998;4.754;2023-05-07T01:25:20;10.82;;;5.55;;
33714;SDS011;20043;50.998;4.754;2023-05-07T01:27:45;12.10;;;5.45;;
33714;SDS011;20043;50.998;4.754;2023-05-07T01:30:11;7.30;;;5.03;;
33714;SDS011;20043;50.998;4.754;2023-05-07T01:32:38;8.63;;;5.22;;
33714;SDS011;20043;50.998;4.754;2023-05-07T01:35:09;8.65;;;4.90;;
33714;SDS011;20043;50.998;4.754;2023-05-07T01:37:37;9.93;;;5.90;;
33714;SDS011;20043;50.998;4.754;2023-05-07T01:40:04;10.70;;;6.68;;
33714;SDS011;20043;50.998;4.754;2023-05-07T01:42:32;10.63;;;6.97;;
33714;SDS011;20043;50.998;4.754;2023-05-07T01:44:58;12.18;;;7.38;;
33714;SDS011;20043;50.998;4.754;2023-05-07T01:47:24;11.60;;;7.55;;
33714;SDS011;20043;50.998;4.754;2023-05-07T01:49:51;9.95;;;7.22;;
33714;SDS011;20043;50.998;4.754;2023-05-07T01:52:17;12.48;;;6.88;;
33714;SDS011;20043;50.998;4.754;2023-05-07T01:54:43;9.95;;;6.70;;
33714;SDS011;20043;50.998;4.754;2023-05-07T01:57:08;10.75;;;6.68;;
33714;SDS011;20043;50.998;4.754;2023-05-07T01:59:34;12.85;;;6.63;;
33714;SDS011;20043;50.998;4.754;2023-05-07T02:02:00;14.60;;;6.60;;
33714;SDS011;20043;50.998;4.754;2023-05-07T02:04:25;12.57;;;7.57;;
33714;SDS011;20043;50.998;4.754;2023-05-07T02:06:51;12.15;;;8.68;;
33714;SDS011;20043;50.998;4.754;2023-05-07T02:09:17;11.20;;;8.00;;
33714;SDS011;20043;50.998;4.754;2023-05-07T02:11:43;8.93;;;7.63;;
33714;SDS011;20043;50.998;4.754;2023-05-07T02:14:09;9.32;;;7.10;;
33714;SDS011;20043;50.998;4.754;2023-05-07T02:16:35;10.15;;;7.32;;
33714;SDS011;20043;50.998;4.754;2023-05-07T02:19:01;11.70;;;6.93;;
33714;SDS011;20043;50.998;4.754;2023-05-07T02:21:27;14.10;;;8.35;;
33714;SDS011;20043;50.998;4.754;2023-05-07T02:23:53;10.40;;;8.43;;
33714;SDS011;20043;50.998;4.754;2023-05-07T02:26:18;13.68;;;8.90;;
33714;SDS011;20043;50.998;4.754;2023-05-07T02:28:44;14.63;;;9.60;;
33714;SDS011;20043;50.998;4.754;2023-05-07T02:31:10;14.25;;;9.82;;
33714;SDS011;20043;50.998;4.754;2023-05-07T02:33:35;14.10;;;10.63;;
33714;SDS011;20043;50.998;4.754;2023-05-07T02:36:11;19.27;;;11.15;;
33714;SDS011;20043;50.998;4.754;2023-05-07T02:38:37;15.25;;;11.90;;
33714;SDS011;20043;50.998;4.754;2023-05-07T02:41:03;15.05;;;11.20;;
33714;SDS011;20043;50.998;4.754;2023-05-07T02:43:29;17.83;;;11.55;;
33714;SDS011;20043;50.998;4.754;2023-05-07T02:46:07;17.73;;;11.40;;
33714;SDS011;20043;50.998;4.754;2023-05-07T02:48:33;15.70;;;10.85;;
33714;SDS011;20043;50.998;4.754;2023-05-07T02:51:00;13.60;;;10.60;;
33714;SDS011;20043;50.998;4.754;2023-05-07T02:53:26;14.65;;;10.82;;
33714;SDS011;20043;50.998;4.754;2023-05-07T02:56:01;14.70;;;10.82;;
33714;SDS011;20043;50.998;4.754;2023-05-07T02:58:26;14.23;;;10.45;;
33714;SDS011;20043;50.998;4.754;2023-05-07T03:00:52;13.52;;;9.95;;
33714;SDS011;20043;50.998;4.754;2023-05-07T03:03:19;17.85;;;9.93;;
33714;SDS011;20043;50.998;4.754;2023-05-07T03:05:45;15.18;;;10.75;;
33714;SDS011;20043;50.998;4.754;2023-05-07T03:08:11;17.17;;;10.02;;
33714;SDS011;20043;50.998;4.754;2023-05-07T03:10:37;17.70;;;11.45;;
33714;SDS011;20043;50.998;4.754;2023-05-07T03:13:03;11.30;;;9.63;;
33714;SDS011;20043;50.998;4.754;2023-05-07T03:15:28;18.08;;;10.85;;
33714;SDS011;20043;50.998;4.754;2023-05-07T03:17:54;14.35;;;10.48;;
33714;SDS011;20043;50.998;4.754;2023-05-07T03:20:20;13.93;;;9.43;;
33714;SDS011;20043;50.998;4.754;2023-05-07T03:22:46;14.80;;;9.13;;
33714;SDS011;20043;50.998;4.754;2023-05-07T03:25:11;13.07;;;8.80;;
33714;SDS011;20043;50.998;4.754;2023-05-07T03:27:37;12.38;;;8.60;;
33714;SDS011;20043;50.998;4.754;2023-05-07T03:30:03;13.70;;;9.52;;
33714;SDS011;20043;50.998;4.754;2023-05-07T03:32:29;14.18;;;9.23;;
33714;SDS011;20043;50.998;4.754;2023-05-07T03:34:55;13.43;;;8.90;;
33714;SDS011;20043;50.998;4.754;2023-05-07T03:37:21;11.73;;;9.55;;
33714;SDS011;20043;50.998;4.754;2023-05-07T03:39:46;12.50;;;9.55;;
33714;SDS011;20043;50.998;4.754;2023-05-07T03:42:13;12.43;;;10.07;;
33714;SDS011;20043;50.998;4.754;2023-05-07T03:44:39;10.95;;;8.85;;
33714;SDS011;20043;50.998;4.754;2023-05-07T03:47:05;12.95;;;10.15;;
33714;SDS011;20043;50.998;4.754;2023-05-07T03:49:31;14.88;;;9.73;;
33714;SDS011;20043;50.998;4.754;2023-05-07T03:51:56;15.65;;;9.63;;
33714;SDS011;20043;50.998;4.754;2023-05-07T03:54:22;13.05;;;9.80;;
33714;SDS011;20043;50.998;4.754;2023-05-07T03:56:47;13.65;;;9.60;;
33714;SDS011;20043;50.998;4.754;2023-05-07T03:59:13;14.45;;;10.50;;
33714;SDS011;20043;50.998;4.754;2023-05-07T04:01:39;13.50;;;10.05;;
33714;SDS011;20043;50.998;4.754;2023-05-07T04:04:05;11.63;;;9.43;;
33714;SDS011;20043;50.998;4.754;2023-05-07T04:06:31;12.23;;;9.32;;
33714;SDS011;20043;50.998;4.754;2023-05-07T04:08:56;13.18;;;9.75;;
33714;SDS011;20043;50.998;4.754;2023-05-07T04:11:22;10.02;;;8.82;;
33714;SDS011;20043;50.998;4.754;2023-05-07T04:13:48;11.73;;;8.45;;
33714;SDS011;20043;50.998;4.754;2023-05-07T04:16:14;12.07;;;8.48;;
33714;SDS011;20043;50.998;4.754;2023-05-07T04:18:39;9.98;;;8.68;;
33714;SDS011;20043;50.998;4.754;2023-05-07T04:21:05;14.35;;;9.18;;
33714;SDS011;20043;50.998;4.754;2023-05-07T04:23:38;9.73;;;8.60;;
33714;SDS011;20043;50.998;4.754;2023-05-07T04:26:04;13.18;;;9.75;;
33714;SDS011;20043;50.998;4.754;2023-05-07T04:28:29;11.40;;;9.00;;
33714;SDS011;20043;50.998;4.754;2023-05-07T04:30:55;14.60;;;8.13;;
33714;SDS011;20043;50.998;4.754;2023-05-07T04:33:20;9.98;;;8.43;;
33714;SDS011;20043;50.998;4.754;2023-05-07T04:35:52;11.70;;;8.20;;
33714;SDS011;20043;50.998;4.754;2023-05-07T04:38:18;13.60;;;8.27;;
33714;SDS011;20043;50.998;4.754;2023-05-07T04:40:44;14.18;;;8.75;;
33714;SDS011;20043;50.998;4.754;2023-05-07T04:43:10;13.15;;;8.82;;
33714;SDS011;20043;50.998;4.754;2023-05-07T04:45:35;13.30;;;8.85;;
33714;SDS011;20043;50.998;4.754;2023-05-07T04:48:01;16.38;;;9.15;;
33714;SDS011;20043;50.998;4.754;2023-05-07T04:50:27;13.60;;;8.98;;
33714;SDS011;20043;50.998;4.754;2023-05-07T04:52:53;14.65;;;9.38;;
33714;SDS011;20043;50.998;4.754;2023-05-07T04:55:18;14.38;;;9.50;;
33714;SDS011;20043;50.998;4.754;2023-05-07T04:57:44;12.98;;;9.13;;
33714;SDS011;20043;50.998;4.754;2023-05-07T05:00:10;19.95;;;9.73;;
33714;SDS011;20043;50.998;4.754;2023-05-07T05:02:39;12.50;;;9.27;;
33714;SDS011;20043;50.998;4.754;2023-05-07T05:05:05;13.13;;;8.90;;
33714;SDS011;20043;50.998;4.754;2023-05-07T05:07:31;13.80;;;9.50;;
33714;SDS011;20043;50.998;4.754;2023-05-07T05:09:57;13.57;;;9.55;;
33714;SDS011;20043;50.998;4.754;2023-05-07T05:12:23;12.57;;;9.48;;
33714;SDS011;20043;50.998;4.754;2023-05-07T05:14:48;13.38;;;9.52;;
33714;SDS011;20043;50.998;4.754;2023-05-07T05:17:14;13.50;;;9.32;;
33714;SDS011;20043;50.998;4.754;2023-05-07T05:19:40;12.32;;;9.15;;
33714;SDS011;20043;50.998;4.754;2023-05-07T05:22:05;12.60;;;9.48;;
33714;SDS011;20043;50.998;4.754;2023-05-07T05:24:31;12.18;;;8.95;;
33714;SDS011;20043;50.998;4.754;2023-05-07T05:26:57;13.70;;;9.15;;
33714;SDS011;20043;50.998;4.754;2023-05-07T05:29:24;14.30;;;10.02;;
33714;SDS011;20043;50.998;4.754;2023-05-07T05:31:50;14.80;;;9.13;;
33714;SDS011;20043;50.998;4.754;2023-05-07T05:34:22;10.77;;;8.60;;
33714;SDS011;20043;50.998;4.754;2023-05-07T05:36:48;10.70;;;8.60;;
33714;SDS011;20043;50.998;4.754;2023-05-07T05:39:14;15.15;;;9.18;;
33714;SDS011;20043;50.998;4.754;2023-05-07T05:41:39;12.25;;;8.40;;
33714;SDS011;20043;50.998;4.754;2023-05-07T05:44:05;11.45;;;8.45;;
33714;SDS011;20043;50.998;4.754;2023-05-07T05:46:31;10.75;;;8.63;;
33714;SDS011;20043;50.998;4.754;2023-05-07T05:48:57;10.13;;;9.02;;
33714;SDS011;20043;50.998;4.754;2023-05-07T05:51:22;13.48;;;9.10;;
33714;SDS011;20043;50.998;4.754;2023-05-07T05:53:48;10.80;;;9.10;;
33714;SDS011;20043;50.998;4.754;2023-05-07T05:56:14;11.82;;;9.68;;
33714;SDS011;20043;50.998;4.754;2023-05-07T05:58:40;16.20;;;9.90;;
33714;SDS011;20043;50.998;4.754;2023-05-07T06:01:06;11.65;;;10.00;;
33714;SDS011;20043;50.998;4.754;2023-05-07T06:03:32;11.95;;;9.13;;
33714;SDS011;20043;50.998;4.754;2023-05-07T06:05:58;15.15;;;10.38;;
33714;SDS011;20043;50.998;4.754;2023-05-07T06:08:24;15.90;;;10.52;;
33714;SDS011;20043;50.998;4.754;2023-05-07T06:10:50;14.45;;;9.68;;
33714;SDS011;20043;50.998;4.754;2023-05-07T06:13:16;14.90;;;10.38;;
33714;SDS011;20043;50.998;4.754;2023-05-07T06:15:42;14.07;;;10.88;;
33714;SDS011;20043;50.998;4.754;2023-05-07T06:18:07;14.73;;;10.93;;
33714;SDS011;20043;50.998;4.754;2023-05-07T06:20:33;15.23;;;10.75;;
33714;SDS011;20043;50.998;4.754;2023-05-07T06:22:59;15.35;;;10.95;;
33714;SDS011;20043;50.998;4.754;2023-05-07T06:25:25;14.98;;;11.13;;
33714;SDS011;20043;50.998;4.754;2023-05-07T06:27:50;15.18;;;10.57;;
33714;SDS011;20043;50.998;4.754;2023-05-07T06:30:16;15.52;;;11.35;;
33714;SDS011;20043;50.998;4.754;2023-05-07T06:32:42;15.45;;;10.55;;
33714;SDS011;20043;50.998;4.754;2023-05-07T06:35:07;14.35;;;10.07;;
33714;SDS011;20043;50.998;4.754;2023-05-07T06:37:33;14.25;;;10.13;;
33714;SDS011;20043;50.998;4.754;2023-05-07T06:39:59;13.80;;;10.80;;
33714;SDS011;20043;50.998;4.754;2023-05-07T06:42:24;16.05;;;10.10;;
33714;SDS011;20043;50.998;4.754;2023-05-07T06:44:51;15.93;;;10.32;;
33714;SDS011;20043;50.998;4.754;2023-05-07T06:47:17;15.05;;;10.27;;
33714;SDS011;20043;50.998;4.754;2023-05-07T06:49:49;15.13;;;9.48;;
33714;SDS011;20043;50.998;4.754;2023-05-07T06:52:15;17.08;;;9.98;;
33714;SDS011;20043;50.998;4.754;2023-05-07T06:54:41;12.75;;;9.93;;
33714;SDS011;20043;50.998;4.754;2023-05-07T06:57:12;14.23;;;10.00;;
33714;SDS011;20043;50.998;4.754;2023-05-07T06:59:38;14.60;;;9.57;;
33714;SDS011;20043;50.998;4.754;2023-05-07T07:02:04;14.50;;;10.02;;
33714;SDS011;20043;50.998;4.754;2023-05-07T07:04:29;16.73;;;10.63;;
33714;SDS011;20043;50.998;4.754;2023-05-07T07:06:55;12.93;;;9.63;;
33714;SDS011;20043;50.998;4.754;2023-05-07T07:09:21;15.88;;;11.20;;
33714;SDS011;20043;50.998;4.754;2023-05-07T07:11:47;15.35;;;11.23;;
33714;SDS011;20043;50.998;4.754;2023-05-07T07:14:13;16.60;;;11.55;;
33714;SDS011;20043;50.998;4.754;2023-05-07T07:16:39;17.02;;;10.50;;
33714;SDS011;20043;50.998;4.754;2023-05-07T07:19:05;19.25;;;11.60;;
33714;SDS011;20043;50.998;4.754;2023-05-07T07:21:31;18.98;;;11.65;;
33714;SDS011;20043;50.998;4.754;2023-05-07T07:23:57;18.55;;;11.95;;
33714;SDS011;20043;50.998;4.754;2023-05-07T07:26:22;15.20;;;11.27;;
33714;SDS011;20043;50.998;4.754;2023-05-07T07:28:48;16.48;;;11.35;;
33714;SDS011;20043;50.998;4.754;2023-05-07T07:31:13;20.25;;;11.38;;
33714;SDS011;20043;50.998;4.754;2023-05-07T07:33:40;15.95;;;11.25;;
33714;SDS011;20043;50.998;4.754;2023-05-07T07:36:06;17.77;;;11.02;;
33714;SDS011;20043;50.998;4.754;2023-05-07T07:38:32;17.83;;;10.80;;
33714;SDS011;20043;50.998;4.754;2023-05-07T07:40:59;19.27;;;10.52;;
33714;SDS011;20043;50.998;4.754;2023-05-07T07:43:25;18.17;;;10.77;;
33714;SDS011;20043;50.998;4.754;2023-05-07T07:45:50;13.32;;;10.38;;
33714;SDS011;20043;50.998;4.754;2023-05-07T07:48:16;17.38;;;10.40;;
33714;SDS011;20043;50.998;4.754;2023-05-07T07:50:42;17.30;;;10.40;;
33714;SDS011;20043;50.998;4.754;2023-05-07T07:53:07;17.58;;;9.70;;
33714;SDS011;20043;50.998;4.754;2023-05-07T07:55:37;14.63;;;9.65;;
33714;SDS011;20043;50.998;4.754;2023-05-07T07:58:04;13.50;;;9.00;;
33714;SDS011;20043;50.998;4.754;2023-05-07T08:00:36;16.77;;;8.75;;
33714;SDS011;20043;50.998;4.754;2023-05-07T08:03:02;17.38;;;8.68;;
33714;SDS011;20043;50.998;4.754;2023-05-07T08:05:28;17.85;;;8.63;;
33714;SDS011;20043;50.998;4.754;2023-05-07T08:07:54;13.35;;;7.60;;
33714;SDS011;20043;50.998;4.754;2023-05-07T08:10:20;16.63;;;7.63;;
33714;SDS011;20043;50.998;4.754;2023-05-07T08:12:49;16.17;;;7.63;;
33714;SDS011;20043;50.998;4.754;2023-05-07T08:15:15;11.80;;;6.43;;
33714;SDS011;20043;50.998;4.754;2023-05-07T08:17:41;12.52;;;6.50;;
33714;SDS011;20043;50.998;4.754;2023-05-07T08:20:08;14.73;;;6.10;;
33714;SDS011;20043;50.998;4.754;2023-05-07T08:22:34;16.58;;;6.03;;
33714;SDS011;20043;50.998;4.754;2023-05-07T08:25:00;18.90;;;6.20;;
33714;SDS011;20043;50.998;4.754;2023-05-07T08:27:26;17.00;;;5.55;;
33714;SDS011;20043;50.998;4.754;2023-05-07T08:29:52;16.58;;;5.28;;
33714;SDS011;20043;50.998;4.754;2023-05-07T08:32:18;13.98;;;5.40;;
33714;SDS011;20043;50.998;4.754;2023-05-07T08:34:44;15.15;;;5.45;;
33714;SDS011;20043;50.998;4.754;2023-05-07T08:37:09;12.07;;;5.05;;
33714;SDS011;20043;50.998;4.754;2023-05-07T08:39:35;12.75;;;5.25;;
33714;SDS011;20043;50.998;4.754;2023-05-07T08:42:01;12.23;;;4.88;;
33714;SDS011;20043;50.998;4.754;2023-05-07T08:44:29;14.80;;;5.30;;
33714;SDS011;20043;50.998;4.754;2023-05-07T08:46:58;12.73;;;5.60;;
33714;SDS011;20043;50.998;4.754;2023-05-07T08:49:26;15.15;;;6.13;;
33714;SDS011;20043;50.998;4.754;2023-05-07T08:51:52;13.15;;;5.53;;
33714;SDS011;20043;50.998;4.754;2023-05-07T08:54:18;15.65;;;6.18;;
33714;SDS011;20043;50.998;4.754;2023-05-07T08:56:45;13.73;;;6.18;;
33714;SDS011;20043;50.998;4.754;2023-05-07T08:59:11;14.35;;;5.55;;
33714;SDS011;20043;50.998;4.754;2023-05-07T09:01:36;13.95;;;5.65;;
33714;SDS011;20043;50.998;4.754;2023-05-07T09:04:03;15.85;;;5.78;;
33714;SDS011;20043;50.998;4.754;2023-05-07T09:06:29;13.60;;;5.70;;
33714;SDS011;20043;50.998;4.754;2023-05-07T09:08:55;14.80;;;6.03;;
33714;SDS011;20043;50.998;4.754;2023-05-07T09:11:22;16.67;;;5.53;;
33714;SDS011;20043;50.998;4.754;2023-05-07T09:13:49;10.07;;;5.68;;
33714;SDS011;20043;50.998;4.754;2023-05-07T09:16:20;11.40;;;5.15;;
33714;SDS011;20043;50.998;4.754;2023-05-07T09:18:49;9.55;;;4.53;;
33714;SDS011;20043;50.998;4.754;2023-05-07T09:21:17;13.80;;;5.00;;
33714;SDS011;20043;50.998;4.754;2023-05-07T09:23:43;10.35;;;4.75;;
33714;SDS011;20043;50.998;4.754;2023-05-07T09:26:09;12.60;;;5.43;;
33714;SDS011;20043;50.998;4.754;2023-05-07T09:28:43;16.23;;;5.68;;
33714;SDS011;20043;50.998;4.754;2023-05-07T09:31:10;11.02;;;5.05;;
33714;SDS011;20043;50.998;4.754;2023-05-07T09:33:36;13.07;;;4.95;;
33714;SDS011;20043;50.998;4.754;2023-05-07T09:36:05;10.80;;;4.50;;
33714;SDS011;20043;50.998;4.754;2023-05-07T09:38:33;10.82;;;4.50;;
33714;SDS011;20043;50.998;4.754;2023-05-07T09:41:02;20.05;;;4.88;;
33714;SDS011;20043;50.998;4.754;2023-05-07T09:43:34;25.10;;;4.28;;
33714;SDS011;20043;50.998;4.754;2023-05-07T09:46:05;17.25;;;5.35;;
33714;SDS011;20043;50.998;4.754;2023-05-07T09:48:31;11.07;;;4.70;;
33714;SDS011;20043;50.998;4.754;2023-05-07T09:51:02;15.20;;;4.95;;
33714;SDS011;20043;50.998;4.754;2023-05-07T09:53:31;10.05;;;4.50;;
33714;SDS011;20043;50.998;4.754;2023-05-07T09:55:58;9.80;;;4.25;;
33714;SDS011;20043;50.998;4.754;2023-05-07T09:58:25;13.65;;;5.05;;
33714;SDS011;20043;50.998;4.754;2023-05-07T10:00:51;11.73;;;5.00;;
33714;SDS011;20043;50.998;4.754;2023-05-07T10:03:18;11.13;;;4.38;;
33714;SDS011;20043;50.998;4.754;2023-05-07T10:05:45;8.48;;;4.47;;
33714;SDS011;20043;50.998;4.754;2023-05-07T10:08:12;15.25;;;4.63;;
33714;SDS011;20043;50.998;4.754;2023-05-07T10:10:41;12.43;;;4.05;;
33714;SDS011;20043;50.998;4.754;2023-05-07T10:13:07;10.73;;;3.90;;
33714;SDS011;20043;50.998;4.754;2023-05-07T10:15:35;13.23;;;4.85;;
33714;SDS011;20043;50.998;4.754;2023-05-07T10:18:02;10.00;;;4.40;;
33714;SDS011;20043;50.998;4.754;2023-05-07T10:20:29;10.32;;;4.43;;
33714;SDS011;20043;50.998;4.754;2023-05-07T10:22:56;11.23;;;4.80;;
33714;SDS011;20043;50.998;4.754;2023-05-07T10:25:28;9.65;;;4.35;;
33714;SDS011;20043;50.998;4.754;2023-05-07T10:27:55;13.93;;;5.22;;
33714;SDS011;20043;50.998;4.754;2023-05-07T10:33:28;18.35;;;5.82;;
33714;SDS011;20043;50.998;4.754;2023-05-07T10:35:59;13.30;;;5.32;;
33714;SDS011;20043;50.998;4.754;2023-05-07T10:38:26;9.52;;;4.63;;
33714;SDS011;20043;50.998;4.754;2023-05-07T10:40:53;14.75;;;4.93;;
33714;SDS011;20043;50.998;4.754;2023-05-07T10:43:19;12.88;;;4.90;;
33714;SDS011;20043;50.998;4.754;2023-05-07T10:46:08;13.85;;;4.55;;
33714;SDS011;20043;50.998;4.754;2023-05-07T10:51:36;11.90;;;4.40;;
33714;SDS011;20043;50.998;4.754;2023-05-07T11:01:55;7.70;;;3.47;;
33714;SDS011;20043;50.998;4.754;2023-05-07T11:04:22;10.77;;;3.70;;
33714;SDS011;20043;50.998;4.754;2023-05-07T11:15:11;12.52;;;3.78;;
33714;SDS011;20043;50.998;4.754;2023-05-07T11:23:33;13.32;;;4.07;;
33714;SDS011;20043;50.998;4.754;2023-05-07T11:26:00;11.02;;;3.25;;
33714;SDS011;20043;50.998;4.754;2023-05-07T11:28:31;10.65;;;4.38;;
33714;SDS011;20043;50.998;4.754;2023-05-07T11:31:05;9.10;;;3.45;;
33714;SDS011;20043;50.998;4.754;2023-05-07T11:33:31;11.95;;;4.07;;
33714;SDS011;20043;50.998;4.754;2023-05-07T11:35:57;10.70;;;3.95;;
33714;SDS011;20043;50.998;4.754;2023-05-07T11:38:24;15.10;;;4.70;;
33714;SDS011;20043;50.998;4.754;2023-05-07T11:40:50;10.48;;;3.83;;
33714;SDS011;20043;50.998;4.754;2023-05-07T11:43:17;11.98;;;4.32;;
33714;SDS011;20043;50.998;4.754;2023-05-07T11:45:42;11.48;;;4.18;;
33714;SDS011;20043;50.998;4.754;2023-05-07T11:48:11;8.02;;;3.55;;
33714;SDS011;20043;50.998;4.754;2023-05-07T11:50:49;8.23;;;3.72;;
33714;SDS011;20043;50.998;4.754;2023-05-07T11:53:24;11.82;;;4.18;;
33714;SDS011;20043;50.998;4.754;2023-05-07T11:55:57;11.35;;;3.85;;
33714;SDS011;20043;50.998;4.754;2023-05-07T11:58:24;11.07;;;3.85;;
33714;SDS011;20043;50.998;4.754;2023-05-07T12:00:53;10.88;;;4.18;;
33714;SDS011;20043;50.998;4.754;2023-05-07T12:03:19;15.95;;;4.05;;
33714;SDS011;20043;50.998;4.754;2023-05-07T12:05:46;10.88;;;3.35;;
33714;SDS011;20043;50.998;4.754;2023-05-07T12:08:15;13.38;;;3.08;;
33714;SDS011;20043;50.998;4.754;2023-05-07T12:10:42;8.68;;;3.00;;
33714;SDS011;20043;50.998;4.754;2023-05-07T12:13:18;11.07;;;3.20;;
33714;SDS011;20043;50.998;4.754;2023-05-07T12:15:51;7.85;;;3.25;;
33714;SDS011;20043;50.998;4.754;2023-05-07T12:18:17;10.18;;;3.10;;
33714;SDS011;20043;50.998;4.754;2023-05-07T12:20:43;9.35;;;3.20;;
33714;SDS011;20043;50.998;4.754;2023-05-07T12:23:10;8.85;;;3.08;;
33714;SDS011;20043;50.998;4.754;2023-05-07T12:25:39;7.72;;;3.35;;
33714;SDS011;20043;50.998;4.754;2023-05-07T12:30:40;7.53;;;3.03;;
33714;SDS011;20043;50.998;4.754;2023-05-07T12:33:07;8.32;;;3.22;;
33714;SDS011;20043;50.998;4.754;2023-05-07T12:35:37;7.88;;;3.08;;
33714;SDS011;20043;50.998;4.754;2023-05-07T12:38:13;11.90;;;3.28;;
33714;SDS011;20043;50.998;4.754;2023-05-07T12:40:40;9.90;;;2.60;;
33714;SDS011;20043;50.998;4.754;2023-05-07T12:43:20;8.13;;;3.00;;
33714;SDS011;20043;50.998;4.754;2023-05-07T12:45:49;7.53;;;2.60;;
33714;SDS011;20043;50.998;4.754;2023-05-07T12:48:16;10.60;;;2.97;;
33714;SDS011;20043;50.998;4.754;2023-05-07T12:50:42;8.32;;;2.97;;
33714;SDS011;20043;50.998;4.754;2023-05-07T12:53:09;10.45;;;2.90;;
33714;SDS011;20043;50.998;4.754;2023-05-07T12:55:40;7.20;;;2.75;;
33714;SDS011;20043;50.998;4.754;2023-05-07T12:58:07;7.80;;;2.58;;
33714;SDS011;20043;50.998;4.754;2023-05-07T13:00:34;10.57;;;2.75;;
33714;SDS011;20043;50.998;4.754;2023-05-07T13:03:03;7.18;;;2.30;;
33714;SDS011;20043;50.998;4.754;2023-05-07T13:05:30;8.98;;;2.65;;
33714;SDS011;20043;50.998;4.754;2023-05-07T13:07:56;8.57;;;2.60;;
33714;SDS011;20043;50.998;4.754;2023-05-07T13:10:23;7.78;;;2.58;;
33714;SDS011;20043;50.998;4.754;2023-05-07T13:12:49;7.93;;;2.55;;
33714;SDS011;20043;50.998;4.754;2023-05-07T13:15:16;8.75;;;2.90;;
33714;SDS011;20043;50.998;4.754;2023-05-07T13:17:42;6.00;;;2.50;;
33714;SDS011;20043;50.998;4.754;2023-05-07T13:20:10;9.02;;;2.70;;
33714;SDS011;20043;50.998;4.754;2023-05-07T13:22:37;7.15;;;2.67;;
33714;SDS011;20043;50.998;4.754;2023-05-07T13:25:04;8.20;;;2.22;;
33714;SDS011;20043;50.998;4.754;2023-05-07T13:27:30;9.73;;;2.72;;
33714;SDS011;20043;50.998;4.754;2023-05-07T13:29:56;8.07;;;2.92;;
33714;SDS011;20043;50.998;4.754;2023-05-07T13:32:22;10.80;;;2.80;;
33714;SDS011;20043;50.998;4.754;2023-05-07T13:34:48;6.40;;;2.58;;
33714;SDS011;20043;50.998;4.754;2023-05-07T13:37:13;5.95;;;2.13;;
33714;SDS011;20043;50.998;4.754;2023-05-07T13:39:39;6.70;;;2.70;;
33714;SDS011;20043;50.998;4.754;2023-05-07T13:42:05;6.07;;;2.63;;
33714;SDS011;20043;50.998;4.754;2023-05-07T13:44:31;7.32;;;2.60;;
33714;SDS011;20043;50.998;4.754;2023-05-07T13:46:57;7.30;;;2.67;;
33714;SDS011;20043;50.998;4.754;2023-05-07T13:49:22;9.02;;;2.75;;
33714;SDS011;20043;50.998;4.754;2023-05-07T13:51:48;6.70;;;2.60;;
33714;SDS011;20043;50.998;4.754;2023-05-07T13:54:14;8.23;;;2.58;;
33714;SDS011;20043;50.998;4.754;2023-05-07T13:56:40;9.60;;;2.30;;
33714;SDS011;20043;50.998;4.754;2023-05-07T13:59:06;7.40;;;2.40;;
33714;SDS011;20043;50.998;4.754;2023-05-07T14:01:32;9.00;;;2.67;;
33714;SDS011;20043;50.998;4.754;2023-05-07T14:03:58;8.13;;;2.75;;
33714;SDS011;20043;50.998;4.754;2023-05-07T14:06:24;10.50;;;2.60;;
33714;SDS011;20043;50.998;4.754;2023-05-07T14:08:50;6.82;;;2.70;;
33714;SDS011;20043;50.998;4.754;2023-05-07T14:11:16;7.32;;;2.28;;
33714;SDS011;20043;50.998;4.754;2023-05-07T14:13:41;5.80;;;2.50;;
33714;SDS011;20043;50.998;4.754;2023-05-07T14:16:07;6.20;;;2.75;;
33714;SDS011;20043;50.998;4.754;2023-05-07T14:18:33;7.03;;;2.58;;
33714;SDS011;20043;50.998;4.754;2023-05-07T14:20:59;9.98;;;2.88;;
33714;SDS011;20043;50.998;4.754;2023-05-07T14:23:25;12.77;;;2.88;;
33714;SDS011;20043;50.998;4.754;2023-05-07T14:25:51;7.25;;;2.72;;
33714;SDS011;20043;50.998;4.754;2023-05-07T14:28:18;6.68;;;2.55;;
33714;SDS011;20043;50.998;4.754;2023-05-07T14:30:44;8.05;;;2.85;;
33714;SDS011;20043;50.998;4.754;2023-05-07T14:33:09;8.05;;;3.20;;
33714;SDS011;20043;50.998;4.754;2023-05-07T14:35:35;7.00;;;3.33;;
33714;SDS011;20043;50.998;4.754;2023-05-07T14:38:01;8.40;;;3.00;;
33714;SDS011;20043;50.998;4.754;2023-05-07T14:40:26;7.57;;;3.05;;
33714;SDS011;20043;50.998;4.754;2023-05-07T14:42:52;4.78;;;2.28;;
33714;SDS011;20043;50.998;4.754;2023-05-07T14:45:18;5.88;;;2.60;;
33714;SDS011;20043;50.998;4.754;2023-05-07T14:47:43;10.43;;;2.90;;
33714;SDS011;20043;50.998;4.754;2023-05-07T14:50:09;7.80;;;2.70;;
33714;SDS011;20043;50.998;4.754;2023-05-07T14:52:35;8.43;;;2.90;;
33714;SDS011;20043;50.998;4.754;2023-05-07T14:55:00;8.48;;;2.60;;
33714;SDS011;20043;50.998;4.754;2023-05-07T14:57:26;7.30;;;2.90;;
33714;SDS011;20043;50.998;4.754;2023-05-07T14:59:51;5.80;;;2.55;;
33714;SDS011;20043;50.998;4.754;2023-05-07T15:02:17;8.50;;;2.92;;